Time;durP1;ratioP1;P1;durP2;ratioP2;P2;SDS_P1;SDS_P2;PMS_P1;PMS_P2;Temp;Humidity;BMP_temperature;BMP_pressure;BME280_temperature;BME280_humidity;BME280_pressure;Samples;Min_cycle;Max_cycle;Signal;HPM_P1;HPM_P2
2023/07/03 00:01:45;;;;;;;3.92;3.20;;;27.80;82.00;;;;;;5012447;28;20508;-83
2023/07/03 00:04:10;;;;;;;3.50;3.20;;;27.70;82.00;;;;;;5011907;28;20493;-83
2023/07/03 00:06:37;;;;;;;5.18;3.13;;;27.60;82.00;;;;;;5012811;28;20093;-83
2023/07/03 00:09:03;;;;;;;3.47;3.05;;;27.50;81.80;;;;;;5012548;28;20022;-83
2023/07/03 00:11:29;;;;;;;5.60;3.65;;;27.40;82.00;;;;;;4995987;28;20474;-83
2023/07/03 00:13:55;;;;;;;4.00;3.40;;;27.40;82.30;;;;;;5015227;28;20109;-83
2023/07/03 00:16:20;;;;;;;4.18;3.05;;;27.30;82.30;;;;;;5015165;28;20057;-83
2023/07/03 00:18:48;;;;;;;4.90;3.50;;;27.20;82.40;;;;;;5014773;28;20466;-83
2023/07/03 00:21:13;;;;;;;4.50;4.03;;;27.10;82.70;;;;;;5014110;28;20437;-83
2023/07/03 00:23:39;;;;;;;4.32;3.50;;;27.10;83.00;;;;;;5014521;28;20069;-83
2023/07/03 00:26:05;;;;;;;4.10;3.20;;;27.00;83.10;;;;;;5014551;28;20018;-83
2023/07/03 00:28:31;;;;;;;3.60;3.20;;;26.90;83.30;;;;;;5015117;28;20083;-83
2023/07/03 00:30:57;;;;;;;4.78;2.80;;;26.80;83.60;;;;;;5014645;28;20370;-83
2023/07/03 00:33:23;;;;;;;4.07;2.97;;;26.70;83.70;;;;;;5014693;28;20584;-83
2023/07/03 00:35:48;;;;;;;3.92;3.08;;;26.70;83.80;;;;;;5014292;28;20109;-82
2023/07/03 00:38:14;;;;;;;4.53;3.10;;;26.60;83.80;;;;;;5014953;28;20497;-82
2023/07/03 00:40:40;;;;;;;5.22;3.58;;;26.60;83.80;;;;;;5014741;28;20152;-82
2023/07/03 00:43:05;;;;;;;4.10;3.25;;;26.60;83.80;;;;;;5014348;28;20037;-82
2023/07/03 00:45:32;;;;;;;3.50;3.17;;;26.50;83.80;;;;;;5014642;28;20036;-82
2023/07/03 00:47:58;;;;;;;3.03;2.72;;;26.50;83.90;;;;;;5014448;28;20061;-82
2023/07/03 00:50:25;;;;;;;3.90;3.20;;;26.50;84.10;;;;;;5014681;28;20045;-83
2023/07/03 00:52:58;;;;;;;4.30;3.75;;;26.40;84.20;;;;;;5014396;28;20034;-83
2023/07/03 00:55:24;;;;;;;3.33;2.90;;;26.40;84.40;;;;;;5014137;28;20022;-83
2023/07/03 00:57:51;;;;;;;3.97;3.47;;;26.30;84.70;;;;;;5014008;28;20033;-83
2023/07/03 01:00:18;;;;;;;5.43;3.85;;;26.30;85.10;;;;;;5013704;28;20390;-83
2023/07/03 01:02:47;;;;;;;5.28;4.40;;;26.20;85.50;;;;;;5014037;28;20033;-83
2023/07/03 01:05:22;;;;;;;;;;;26.20;85.60;;;;;;5014890;28;20026;-83
2023/07/03 01:07:48;;;;;;;6.63;4.97;;;26.20;86.20;;;;;;5014208;28;19913;-83
2023/07/03 01:10:19;;;;;;;5.30;4.55;;;26.10;86.90;;;;;;4996763;28;20369;-82
2023/07/03 01:12:49;;;;;;;5.55;4.82;;;26.10;86.80;;;;;;4974136;28;1173468;-82
2023/07/03 01:15:19;;;;;;;5.60;5.00;;;26.00;87.20;;;;;;5015209;28;20438;-82
2023/07/03 01:17:47;;;;;;;;;;;26.00;87.50;;;;;;5015665;28;20088;-82
2023/07/03 01:20:17;;;;;;;6.10;5.15;;;26.00;87.90;;;;;;5014614;28;19906;-82
2023/07/03 01:22:47;;;;;;;;;;;25.90;88.10;;;;;;5014517;28;20038;-82
2023/07/03 01:25:19;;;;;;;7.72;5.50;;;25.90;88.40;;;;;;5014999;28;19909;-82
2023/07/03 01:27:49;;;;;;;7.25;5.65;;;25.90;88.70;;;;;;5015197;28;20073;-82
2023/07/03 01:30:18;;;;;;;5.82;5.22;;;25.80;88.70;;;;;;5013919;28;20030;-82
2023/07/03 01:32:47;;;;;;;8.60;5.93;;;25.80;88.90;;;;;;5011821;28;20029;-82
2023/07/03 01:35:15;;;;;;;7.15;6.07;;;25.80;89.00;;;;;;5013691;28;20044;-82
2023/07/03 01:37:44;;;;;;;7.15;5.28;;;25.90;89.10;;;;;;5013334;28;20556;-82
2023/07/03 01:40:12;;;;;;;6.40;5.30;;;25.90;89.00;;;;;;5013704;28;20053;-82
2023/07/03 01:42:40;;;;;;;5.93;5.20;;;25.80;88.80;;;;;;5014353;28;20083;-82
2023/07/03 01:45:07;;;;;;;5.97;5.13;;;25.90;88.80;;;;;;5014058;28;20026;-82
2023/07/03 01:47:33;;;;;;;5.85;4.57;;;25.80;88.60;;;;;;5014469;28;20067;-82
2023/07/03 01:49:59;;;;;;;4.97;4.43;;;25.80;88.60;;;;;;5014575;28;20076;-82
2023/07/03 01:52:40;;;;;;;5.28;4.47;;;25.80;88.70;;;;;;5014411;28;20026;-82
2023/07/03 01:55:29;;;;;;;4.82;4.22;;;25.80;88.70;;;;;;5014372;28;20030;-83
2023/07/03 01:58:06;;;;;;;5.43;4.50;;;25.90;88.60;;;;;;5014571;28;20026;-83
2023/07/03 02:00:46;;;;;;;6.55;4.75;;;25.90;88.50;;;;;;5014136;28;20081;-83
2023/07/03 02:03:37;;;;;;;4.32;3.80;;;25.80;88.40;;;;;;5014113;28;20465;-83
2023/07/03 02:06:21;;;;;;;5.60;5.00;;;25.90;88.50;;;;;;5013830;28;20083;-83
2023/07/03 02:08:49;;;;;;;5.32;4.70;;;25.90;88.70;;;;;;5013830;28;20030;-83
2023/07/03 02:11:17;;;;;;;5.05;4.55;;;25.80;88.70;;;;;;5013648;28;20034;-83
2023/07/03 02:13:43;;;;;;;6.63;4.72;;;25.80;88.80;;;;;;5014116;28;20084;-83
2023/07/03 02:16:08;;;;;;;5.47;4.75;;;25.80;88.90;;;;;;5014339;28;20030;-83
2023/07/03 02:18:35;;;;;;;6.25;5.40;;;25.80;89.00;;;;;;5014259;28;20080;-83
2023/07/03 02:21:01;;;;;;;6.65;5.28;;;25.80;89.20;;;;;;5014021;28;20502;-83
2023/07/03 02:23:27;;;;;;;9.25;6.05;;;25.80;89.40;;;;;;5013801;28;20072;-83
2023/07/03 02:25:52;;;;;;;6.35;5.75;;;25.80;89.60;;;;;;5014003;28;20026;-83
2023/07/03 02:28:18;;;;;;;7.65;6.43;;;25.70;89.70;;;;;;5014075;28;20045;-83
2023/07/03 02:30:44;;;;;;;6.97;6.25;;;25.80;90.00;;;;;;5013927;28;20022;-83
2023/07/03 02:33:11;;;;;;;8.23;7.03;;;25.70;90.00;;;;;;5013573;28;20030;-83
2023/07/03 02:35:37;;;;;;;8.15;7.15;;;25.80;90.10;;;;;;5013786;28;20022;-83
2023/07/03 02:38:03;;;;;;;9.13;7.55;;;25.70;90.20;;;;;;5013236;28;20113;-83
2023/07/03 02:40:29;;;;;;;8.85;7.55;;;25.80;90.40;;;;;;5013471;28;20030;-83
2023/07/03 02:42:55;;;;;;;8.88;7.78;;;25.70;90.50;;;;;;5013261;28;20489;-83
2023/07/03 02:45:20;;;;;;;9.55;7.72;;;25.80;90.70;;;;;;5013761;28;20115;-82
2023/07/03 02:47:46;;;;;;;10.45;7.75;;;25.70;90.80;;;;;;5013680;28;20037;-82
2023/07/03 02:50:12;;;;;;;10.00;8.48;;;25.70;90.90;;;;;;5013084;28;20037;-82
2023/07/03 02:52:37;;;;;;;10.38;9.07;;;25.70;91.00;;;;;;5013155;28;20033;-82
2023/07/03 02:55:03;;;;;;;9.32;8.35;;;25.70;91.20;;;;;;5013351;28;20026;-82
2023/07/03 02:57:29;;;;;;;10.48;9.48;;;25.70;91.30;;;;;;5013493;28;20030;-82
2023/07/03 02:59:55;;;;;;;10.32;9.32;;;25.70;91.40;;;;;;5013178;28;20022;-82
2023/07/03 03:02:20;;;;;;;10.85;9.75;;;25.60;91.40;;;;;;5013639;28;20038;-82
2023/07/03 03:04:47;;;;;;;11.27;9.95;;;25.70;91.60;;;;;;5013349;28;20080;-82
2023/07/03 03:07:14;;;;;;;10.30;9.23;;;25.60;91.80;;;;;;5013176;28;20037;-82
2023/07/03 03:09:40;;;;;;;11.68;10.48;;;25.50;91.80;;;;;;5013264;28;20084;-82
2023/07/03 03:12:07;;;;;;;10.93;9.82;;;25.50;92.00;;;;;;4993562;28;20490;-82
2023/07/03 03:14:33;;;;;;;11.50;9.82;;;25.50;92.10;;;;;;4993506;28;20034;-82
2023/07/03 03:16:58;;;;;;;10.48;9.43;;;25.50;92.10;;;;;;4993868;28;20037;-82
2023/07/03 03:19:24;;;;;;;10.57;9.50;;;25.40;92.10;;;;;;4976433;28;20058;-82
2023/07/03 03:21:50;;;;;;;10.48;9.48;;;25.40;92.20;;;;;;4993450;28;20041;-82
2023/07/03 03:24:17;;;;;;;9.88;8.88;;;25.40;92.10;;;;;;5013179;28;20022;-82
2023/07/03 03:26:42;;;;;;;9.90;8.93;;;25.50;92.20;;;;;;5013303;28;20044;-82
2023/07/03 03:29:08;;;;;;;10.25;9.25;;;25.50;92.20;;;;;;5013490;28;20018;-83
2023/07/03 03:31:34;;;;;;;10.82;9.38;;;25.40;92.20;;;;;;5012957;28;20489;-83
2023/07/03 03:33:59;;;;;;;11.27;10.13;;;25.40;92.30;;;;;;5013227;28;20125;-83
2023/07/03 03:36:25;;;;;;;13.60;9.02;;;25.40;92.30;;;;;;5012631;28;20088;-83
2023/07/03 03:38:51;;;;;;;12.05;9.30;;;25.40;92.50;;;;;;5013149;28;20026;-83
2023/07/03 03:41:16;;;;;;;17.05;11.23;;;25.40;92.50;;;;;;5012824;28;20113;-83
2023/07/03 03:43:42;;;;;;;11.38;10.10;;;25.40;92.60;;;;;;5013091;28;20102;-83
2023/07/03 03:46:08;;;;;;;11.10;9.85;;;25.40;92.60;;;;;;5013958;28;20052;-83
2023/07/03 03:48:35;;;;;;;9.35;7.72;;;25.30;92.60;;;;;;5016638;28;20117;-83
2023/07/03 03:51:00;;;;;;;9.80;8.80;;;25.40;92.70;;;;;;5016373;28;20018;-83
2023/07/03 03:53:26;;;;;;;10.18;8.35;;;25.30;92.80;;;;;;4998784;28;20022;-83
2023/07/03 03:55:53;;;;;;;9.45;8.52;;;25.30;92.70;;;;;;5016323;28;20474;-83
2023/07/03 03:58:20;;;;;;;9.40;8.40;;;25.30;92.70;;;;;;5016468;28;20410;-83
2023/07/03 04:00:46;;;;;;;9.95;8.43;;;25.40;92.70;;;;;;5016474;28;20092;-83
2023/07/03 04:03:12;;;;;;;9.65;8.63;;;25.30;92.60;;;;;;5016565;28;20026;-83
2023/07/03 04:05:41;;;;;;;9.43;8.40;;;25.30;92.50;;;;;;5016210;28;20036;-82
2023/07/03 04:08:07;;;;;;;11.88;9.55;;;25.30;92.50;;;;;;5015955;28;20041;-82
2023/07/03 04:10:32;;;;;;;8.18;7.43;;;25.30;92.50;;;;;;5015885;28;20022;-82
2023/07/03 04:12:58;;;;;;;8.38;7.32;;;25.30;92.50;;;;;;5016639;28;20034;-82
2023/07/03 04:15:24;;;;;;;7.30;6.60;;;25.30;92.40;;;;;;5016332;28;20153;-82
2023/07/03 04:17:50;;;;;;;7.85;7.05;;;25.30;92.40;;;;;;5016307;28;20057;-82
2023/07/03 04:20:17;;;;;;;9.02;7.63;;;25.30;92.40;;;;;;5016093;28;20049;-83
2023/07/03 04:22:44;;;;;;;7.93;7.10;;;25.30;92.30;;;;;;4996405;28;20161;-83
2023/07/03 04:25:10;;;;;;;8.82;7.15;;;25.30;92.20;;;;;;4996674;28;20034;-83
2023/07/03 04:27:36;;;;;;;7.78;6.90;;;25.30;92.10;;;;;;4996627;28;20026;-83
2023/07/03 04:30:04;;;;;;;9.82;6.47;;;25.40;92.00;;;;;;4996728;28;20060;-83
2023/07/03 04:32:30;;;;;;;7.72;6.20;;;25.30;91.90;;;;;;5014514;28;20026;-83
2023/07/03 04:34:57;;;;;;;7.07;6.35;;;25.30;91.90;;;;;;5015936;28;20038;-83
2023/07/03 04:37:26;;;;;;;6.22;5.20;;;25.30;91.90;;;;;;5015727;28;20033;-83
2023/07/03 04:39:56;;;;;;;8.68;6.72;;;25.30;91.90;;;;;;5015870;28;20092;-83
2023/07/03 04:42:23;;;;;;;6.10;5.50;;;25.20;91.80;;;;;;5015483;28;20026;-83
2023/07/03 04:44:49;;;;;;;5.90;5.30;;;25.30;91.80;;;;;;5015881;28;20406;-83
2023/07/03 04:47:18;;;;;;;5.72;4.88;;;25.30;91.80;;;;;;4998455;28;20029;-83
2023/07/03 04:49:45;;;;;;;8.15;5.38;;;25.30;91.80;;;;;;5015932;28;20034;-83
2023/07/03 04:52:11;;;;;;;6.15;5.50;;;25.30;91.80;;;;;;5015530;28;20030;-83
2023/07/03 04:54:38;;;;;;;5.97;4.82;;;25.40;91.80;;;;;;5015496;28;20076;-83
2023/07/03 04:57:04;;;;;;;8.82;4.70;;;25.40;91.70;;;;;;5015645;28;20045;-83
2023/07/03 04:59:29;;;;;;;5.68;4.72;;;25.40;91.60;;;;;;5015856;28;20026;-83
2023/07/03 05:01:55;;;;;;;5.90;4.93;;;25.40;91.60;;;;;;5015416;28;20091;-83
2023/07/03 05:04:21;;;;;;;5.00;4.50;;;25.40;91.50;;;;;;5015191;28;20038;-83
2023/07/03 05:06:47;;;;;;;5.53;4.20;;;25.40;91.50;;;;;;5014951;28;20026;-82
2023/07/03 05:09:13;;;;;;;8.23;4.57;;;25.40;91.50;;;;;;5015415;28;20035;-82
2023/07/03 05:11:38;;;;;;;6.22;5.47;;;25.30;91.50;;;;;;5015179;28;20064;-82
2023/07/03 05:14:04;;;;;;;8.77;5.32;;;25.40;91.50;;;;;;5015250;28;20481;-83
2023/07/03 05:16:30;;;;;;;9.02;4.55;;;25.40;91.40;;;;;;5014876;28;20426;-83
2023/07/03 05:18:56;;;;;;;5.13;3.95;;;25.40;91.40;;;;;;5014562;28;20041;-83
2023/07/03 05:21:21;;;;;;;6.32;4.53;;;25.40;91.30;;;;;;5014828;28;20096;-83
2023/07/03 05:23:47;;;;;;;6.63;5.50;;;25.40;91.30;;;;;;5014792;28;20096;-83
2023/07/03 05:26:13;;;;;;;7.70;5.70;;;25.40;91.40;;;;;;5014924;28;20040;-83
2023/07/03 05:28:38;;;;;;;5.38;4.75;;;25.40;91.30;;;;;;5014757;28;20432;-83
2023/07/03 05:31:04;;;;;;;5.97;4.53;;;25.40;91.30;;;;;;5014262;28;20030;-83
2023/07/03 05:33:30;;;;;;;5.03;4.28;;;25.30;91.20;;;;;;5014797;28;20027;-82
2023/07/03 05:35:59;;;;;;;6.95;4.32;;;25.30;91.20;;;;;;5014792;28;20049;-83
2023/07/03 05:38:25;;;;;;;4.57;3.80;;;25.40;91.10;;;;;;5014097;28;20045;-83
2023/07/03 05:40:51;;;;;;;4.53;3.67;;;25.30;90.70;;;;;;5014296;28;20026;-83
2023/07/03 05:43:17;;;;;;;7.43;3.80;;;25.30;90.70;;;;;;5013790;28;20034;-83
2023/07/03 05:45:44;;;;;;;4.80;3.80;;;25.30;90.60;;;;;;5014071;28;20025;-83
2023/07/03 05:48:10;;;;;;;4.60;3.38;;;25.30;90.30;;;;;;5014002;28;20486;-83
2023/07/03 05:50:35;;;;;;;4.07;3.47;;;25.30;90.30;;;;;;5014937;28;20033;-83
2023/07/03 05:53:01;;;;;;;5.97;3.28;;;25.30;90.30;;;;;;5014600;28;20468;-83
2023/07/03 05:55:26;;;;;;;4.93;2.85;;;25.30;90.20;;;;;;5014589;28;20041;-83
2023/07/03 05:57:52;;;;;;;3.55;2.95;;;25.40;90.10;;;;;;5014230;28;20068;-82
2023/07/03 06:00:18;;;;;;;3.60;3.08;;;25.40;90.00;;;;;;5013998;28;20096;-82
2023/07/03 06:02:45;;;;;;;4.70;3.33;;;25.40;89.80;;;;;;5013594;28;20025;-83
2023/07/03 06:05:12;;;;;;;3.92;3.15;;;25.40;89.60;;;;;;5014443;28;20025;-83
2023/07/03 06:07:38;;;;;;;4.70;3.17;;;25.40;89.60;;;;;;5013421;28;20084;-81
2023/07/03 06:10:05;;;;;;;3.72;3.28;;;25.40;89.60;;;;;;5002861;28;20030;-82
2023/07/03 06:12:31;;;;;;;4.90;3.33;;;25.40;89.50;;;;;;4994105;28;20050;-83
2023/07/03 06:15:00;;;;;;;4.20;3.05;;;25.40;89.70;;;;;;5011179;28;20092;-83
2023/07/03 06:17:28;;;;;;;5.10;3.72;;;25.40;89.80;;;;;;5013620;28;20026;-83
2023/07/03 06:19:54;;;;;;;3.72;3.30;;;25.40;89.60;;;;;;5013639;28;20044;-82
2023/07/03 06:22:20;;;;;;;4.75;3.58;;;25.40;89.80;;;;;;5014080;28;20057;-83
2023/07/03 06:24:46;;;;;;;4.70;3.17;;;25.40;90.00;;;;;;5013641;28;20064;-84
2023/07/03 06:27:12;;;;;;;5.65;3.30;;;25.40;89.80;;;;;;5014237;28;20446;-83
2023/07/03 06:29:39;;;;;;;5.60;3.67;;;25.50;89.70;;;;;;5013650;28;20034;-83
2023/07/03 06:32:05;;;;;;;8.25;4.10;;;25.50;89.70;;;;;;5013269;28;20018;-83
2023/07/03 06:34:31;;;;;;;4.57;3.28;;;25.40;89.60;;;;;;5013238;28;20048;-82
2023/07/03 06:36:56;;;;;;;4.38;3.25;;;25.40;89.70;;;;;;5012017;28;20026;-82
2023/07/03 06:39:22;;;;;;;7.57;3.42;;;25.40;89.70;;;;;;4987786;28;20034;-82
2023/07/03 06:41:48;;;;;;;4.45;3.58;;;25.40;89.60;;;;;;5013966;28;20034;-82
2023/07/03 06:44:16;;;;;;;4.55;2.85;;;25.40;89.60;;;;;;5005557;28;20025;-83
2023/07/03 06:46:43;;;;;;;3.38;2.95;;;25.40;89.30;;;;;;5013608;28;20033;-84
2023/07/03 06:49:12;;;;;;;5.13;3.45;;;25.40;89.30;;;;;;5012050;28;20026;-83
2023/07/03 06:51:40;;;;;;;4.22;3.28;;;25.40;89.00;;;;;;5003813;28;20076;-83
2023/07/03 06:54:06;;;;;;;5.13;3.20;;;25.40;89.00;;;;;;5013517;28;20026;-83
2023/07/03 06:56:32;;;;;;;4.65;3.90;;;25.40;89.00;;;;;;4992340;28;20030;-84
2023/07/03 06:58:57;;;;;;;8.82;3.42;;;25.40;88.90;;;;;;5012520;28;20359;-84
2023/07/03 07:01:28;;;;;;;7.55;3.97;;;25.40;89.00;;;;;;5012669;28;20037;-84
2023/07/03 07:03:54;;;;;;;4.15;3.35;;;25.40;88.90;;;;;;5013628;28;20034;-78
2023/07/03 07:06:26;;;;;;;5.05;3.28;;;25.40;89.00;;;;;;5013398;28;20097;-78
2023/07/03 07:08:52;;;;;;;3.55;3.00;;;25.40;89.00;;;;;;5012925;28;20026;-79
2023/07/03 07:11:24;;;;;;;4.63;3.28;;;25.40;89.00;;;;;;5013436;28;20463;-79
2023/07/03 07:13:51;;;;;;;3.95;3.00;;;25.50;89.10;;;;;;5012882;28;20058;-79
2023/07/03 07:16:21;;;;;;;4.88;2.70;;;25.50;88.80;;;;;;5013468;28;20351;-79
2023/07/03 07:18:50;;;;;;;6.43;2.83;;;25.50;88.30;;;;;;5013114;28;20038;-79
2023/07/03 07:21:16;;;;;;;4.15;2.80;;;25.40;88.30;;;;;;5011958;28;20100;-80
2023/07/03 07:23:42;;;;;;;3.92;2.80;;;25.40;88.40;;;;;;4997423;28;20117;-78
2023/07/03 07:26:08;;;;;;;3.47;2.78;;;25.40;88.30;;;;;;4999540;28;20022;-78
2023/07/03 07:28:35;;;;;;;3.20;2.40;;;25.40;88.30;;;;;;5017099;28;20026;-79
2023/07/03 07:31:00;;;;;;;3.25;2.50;;;25.40;88.70;;;;;;5015239;28;20037;-79
2023/07/03 07:33:26;;;;;;;4.10;2.97;;;25.40;88.90;;;;;;5006795;28;20417;-80
2023/07/03 07:35:52;;;;;;;3.72;3.28;;;25.40;89.20;;;;;;5013337;28;20061;-80
2023/07/03 07:38:19;;;;;;;5.75;3.70;;;25.40;89.70;;;;;;5015919;28;20099;-80
2023/07/03 07:40:45;;;;;;;4.32;3.10;;;25.10;90.10;;;;;;5016296;28;20022;-79
2023/07/03 07:43:11;;;;;;;4.43;2.90;;;25.00;90.30;;;;;;5016764;28;20041;-79
2023/07/03 07:45:37;;;;;;;14.50;2.50;;;24.90;90.50;;;;;;5013212;28;20061;-78
2023/07/03 07:48:03;;;;;;;3.97;2.42;;;25.00;90.40;;;;;;5015275;28;20060;-79
2023/07/03 07:50:32;;;;;;;3.63;2.22;;;25.00;90.50;;;;;;5007313;28;20877;-77
2023/07/03 07:52:59;;;;;;;2.80;2.30;;;25.00;90.50;;;;;;5012308;28;20117;-80
2023/07/03 07:55:25;;;;;;;3.28;2.42;;;25.10;90.50;;;;;;5016547;28;20028;-78
2023/07/03 07:57:51;;;;;;;4.40;2.67;;;25.20;90.50;;;;;;5015834;28;20104;-79
2023/07/03 08:00:17;;;;;;;3.20;2.55;;;25.20;90.40;;;;;;5015613;28;20026;-78
2023/07/03 08:02:43;;;;;;;3.25;2.25;;;25.20;90.40;;;;;;5016566;28;20034;-78
2023/07/03 08:05:08;;;;;;;2.53;2.28;;;25.30;90.40;;;;;;5016273;28;20033;-78
2023/07/03 08:07:34;;;;;;;2.72;2.17;;;25.40;90.30;;;;;;5016638;28;20033;-79
2023/07/03 08:10:00;;;;;;;3.75;2.58;;;25.50;90.10;;;;;;5015237;28;20080;-80
2023/07/03 08:12:26;;;;;;;3.75;2.90;;;25.60;90.20;;;;;;5015642;28;20088;-78
2023/07/03 08:14:51;;;;;;;3.35;2.55;;;25.70;90.10;;;;;;5015549;28;20112;-79
2023/07/03 08:17:18;;;;;;;2.88;2.00;;;25.70;89.80;;;;;;4997481;28;20088;-80
2023/07/03 08:19:44;;;;;;;3.30;2.45;;;25.80;89.30;;;;;;5014972;28;20040;-81
2023/07/03 08:22:10;;;;;;;3.35;2.40;;;25.80;89.30;;;;;;5015830;28;20121;-81
2023/07/03 08:24:35;;;;;;;2.65;2.22;;;25.90;89.40;;;;;;5003294;28;20030;-81
2023/07/03 08:27:01;;;;;;;2.92;2.38;;;25.90;89.20;;;;;;4995783;28;20077;-82
2023/07/03 08:29:26;;;;;;;13.75;11.57;;;25.90;89.10;;;;;;5016063;28;20034;-81
2023/07/03 08:31:52;;;;;;;21.15;18.95;;;26.00;89.30;;;;;;5015023;28;20690;-82
2023/07/03 08:34:18;;;;;;;19.40;16.35;;;26.00;89.10;;;;;;5015793;28;20437;-82
2023/07/03 08:36:43;;;;;;;6.13;4.93;;;26.20;89.20;;;;;;5002666;28;20114;-81
2023/07/03 08:39:09;;;;;;;3.97;3.17;;;26.20;88.70;;;;;;4996426;28;20114;-80
2023/07/03 08:41:44;;;;;;;6.53;3.20;;;26.30;88.70;;;;;;5003072;28;20034;-81
2023/07/03 08:44:10;;;;;;;3.83;3.15;;;26.30;88.50;;;;;;4984097;28;20444;-81
2023/07/03 08:46:36;;;;;;;8.60;3.40;;;26.30;88.30;;;;;;5003289;28;20046;-80
2023/07/03 08:49:04;;;;;;;3.83;3.10;;;26.30;88.50;;;;;;5000480;28;20019;-81
2023/07/03 08:51:34;;;;;;;3.17;2.75;;;26.30;88.50;;;;;;4987418;28;20113;-81
2023/07/03 08:54:16;;;;;;;3.90;2.90;;;26.30;88.30;;;;;;5008267;28;20101;-81
2023/07/03 08:56:42;;;;;;;3.83;3.03;;;26.30;88.50;;;;;;5001582;28;20038;-81
2023/07/03 08:59:08;;;;;;;3.67;2.80;;;26.40;88.20;;;;;;5002963;28;20109;-81
2023/07/03 09:01:46;;;;;;;3.75;2.83;;;26.50;88.20;;;;;;5000802;28;20122;-81
2023/07/03 09:04:45;;;;;;;5.15;3.08;;;26.50;87.90;;;;;;5001287;28;20450;-80
2023/07/03 09:07:25;;;;;;;4.07;3.47;;;26.50;87.60;;;;;;5001592;28;20045;-81
2023/07/03 09:10:04;;;;;;;3.13;2.70;;;26.60;86.80;;;;;;5001513;28;20053;-80
2023/07/03 09:12:45;;;;;;;4.15;2.72;;;26.50;86.90;;;;;;5008053;28;20042;-81
2023/07/03 09:15:46;;;;;;;4.18;2.70;;;26.50;87.20;;;;;;5007334;28;20037;-81
2023/07/03 09:18:17;;;;;;;5.00;2.95;;;26.60;87.00;;;;;;5001198;28;20033;-81
2023/07/03 09:20:43;;;;;;;3.30;2.80;;;26.60;86.70;;;;;;5001535;28;20030;-81
2023/07/03 09:23:32;;;;;;;3.33;2.72;;;26.70;86.60;;;;;;5002854;28;20026;-81
2023/07/03 09:26:04;;;;;;;4.55;2.53;;;26.70;86.40;;;;;;4993962;28;20042;-80
2023/07/03 09:28:34;;;;;;;4.13;3.00;;;26.80;86.10;;;;;;5009811;28;20485;-80
2023/07/03 09:30:59;;;;;;;3.92;2.97;;;26.80;86.00;;;;;;5014455;28;20041;-80
2023/07/03 09:33:25;;;;;;;3.17;2.40;;;26.90;86.10;;;;;;4996727;28;20022;-80
2023/07/03 09:35:51;;;;;;;3.88;2.47;;;26.90;86.10;;;;;;5014093;28;20482;-78
2023/07/03 09:38:21;;;;;;;4.13;3.03;;;27.10;85.90;;;;;;5013654;28;20034;-80
2023/07/03 09:40:53;;;;;;;3.50;2.40;;;27.10;85.60;;;;;;5015030;28;20029;-81
2023/07/03 09:43:22;;;;;;;3.17;2.55;;;27.20;85.90;;;;;;5013515;28;20033;-80
2023/07/03 09:45:51;;;;;;;3.25;2.95;;;27.30;85.50;;;;;;5014077;28;20029;-78
2023/07/03 09:48:25;;;;;;;3.45;2.50;;;27.40;85.20;;;;;;5014085;28;20034;-78
2023/07/03 09:50:51;;;;;;;5.10;2.88;;;27.60;84.90;;;;;;5000513;28;20458;-79
2023/07/03 09:53:20;;;;;;;6.25;2.63;;;27.70;84.00;;;;;;5009503;28;20089;-78
2023/07/03 09:55:54;;;;;;;3.13;2.78;;;27.80;84.00;;;;;;5013987;28;20352;-78
2023/07/03 09:58:24;;;;;;;3.00;2.60;;;27.80;83.90;;;;;;5013981;28;20030;-78
2023/07/03 10:00:58;;;;;;;3.78;2.60;;;27.90;83.70;;;;;;5006948;28;20538;-78
2023/07/03 10:03:26;;;;;;;3.40;2.70;;;28.00;84.10;;;;;;5014063;28;20026;-81
2023/07/03 10:05:53;;;;;;;4.38;3.15;;;28.10;83.90;;;;;;5001502;28;20034;-79
2023/07/03 10:08:22;;;;;;;3.38;3.08;;;28.30;82.60;;;;;;5014652;28;20022;-79
2023/07/03 10:10:50;;;;;;;3.53;2.78;;;28.30;82.70;;;;;;5006816;28;20030;-79
2023/07/03 10:13:37;;;;;;;5.10;3.00;;;28.40;82.90;;;;;;5006302;28;20037;-79
2023/07/03 10:16:04;;;;;;;4.22;2.88;;;28.60;82.50;;;;;;4995701;28;20523;-79
2023/07/03 10:18:39;;;;;;;5.32;3.50;;;28.70;82.00;;;;;;5013626;28;20037;-79
2023/07/03 10:21:12;;;;;;;3.17;2.83;;;28.80;80.70;;;;;;5014230;28;20466;-79
2023/07/03 10:23:41;;;;;;;3.35;2.38;;;28.80;80.80;;;;;;4996261;28;20045;-79
2023/07/03 10:26:12;;;;;;;3.88;2.72;;;28.90;81.10;;;;;;4996514;28;20087;-80
2023/07/03 10:29:00;;;;;;;3.75;2.92;;;28.90;80.70;;;;;;5013316;28;20097;-79
2023/07/03 10:31:41;;;;;;;3.42;2.90;;;28.90;80.60;;;;;;5011284;28;20030;-78
2023/07/03 10:34:19;;;;;;;3.08;2.58;;;28.90;80.50;;;;;;5014102;28;20026;-79
2023/07/03 10:36:49;;;;;;;3.50;2.90;;;29.00;80.20;;;;;;5002975;28;20083;-79
2023/07/03 10:39:30;;;;;;;4.32;3.17;;;29.00;80.40;;;;;;5013718;28;20079;-79
2023/07/03 10:42:02;;;;;;;2.50;2.30;;;29.20;79.90;;;;;;5013524;28;20036;-79
2023/07/03 10:44:32;;;;;;;3.30;2.45;;;29.40;79.80;;;;;;5013869;28;20033;-79
2023/07/03 10:47:28;;;;;;;3.20;2.88;;;29.60;79.10;;;;;;5013039;28;20044;-80
2023/07/03 10:49:57;;;;;;;3.40;2.90;;;29.80;77.20;;;;;;4979208;28;20041;-78
2023/07/03 10:53:07;;;;;;;3.13;2.70;;;29.90;77.70;;;;;;5014174;28;20076;-78
2023/07/03 10:55:54;;;;;;;3.25;2.67;;;30.00;76.70;;;;;;5011068;28;20462;-79
2023/07/03 10:58:37;;;;;;;4.20;3.15;;;30.10;76.80;;;;;;5012823;28;20057;-81
2023/07/03 11:01:23;;;;;;;4.60;3.33;;;30.10;75.50;;;;;;5012040;28;20109;-79
2023/07/03 11:04:17;;;;;;;3.33;3.03;;;29.90;74.80;;;;;;5013493;28;20073;-79
2023/07/03 11:07:07;;;;;;;3.70;2.92;;;29.90;75.40;;;;;;5013299;28;20542;-79
2023/07/03 11:09:56;;;;;;;2.90;2.60;;;29.90;75.70;;;;;;5012608;28;20073;-79
2023/07/03 11:12:26;;;;;;;3.43;2.43;;;30.00;76.50;;;;;;5010398;28;20045;-80
2023/07/03 11:15:07;;;;;;;3.40;3.10;;;30.20;76.40;;;;;;4993800;28;20101;-80
2023/07/03 11:18:13;;;;;;;3.58;2.92;;;30.30;75.60;;;;;;5004934;28;20038;-79
2023/07/03 11:21:02;;;;;;;4.78;3.05;;;30.50;75.20;;;;;;5012966;28;20489;-80
2023/07/03 11:23:47;;;;;;;3.38;2.70;;;30.40;74.80;;;;;;5013335;28;20463;-80
2023/07/03 11:26:17;;;;;;;3.30;3.00;;;30.40;75.30;;;;;;5007989;28;20097;-79
2023/07/03 11:28:50;;;;;;;3.35;2.90;;;30.30;75.30;;;;;;5002916;28;20429;-80
2023/07/03 11:31:16;;;;;;;4.40;3.05;;;30.30;75.90;;;;;;5013392;28;20478;-80
2023/07/03 11:33:44;;;;;;;5.40;3.03;;;30.10;76.20;;;;;;5013490;28;20056;-80
2023/07/03 11:36:33;;;;;;;3.13;2.75;;;30.10;76.40;;;;;;5013694;28;20026;-80
2023/07/03 11:39:19;;;;;;;3.35;2.90;;;30.10;76.20;;;;;;5013231;28;20088;-80
2023/07/03 11:42:01;;;;;;;4.63;3.53;;;30.00;76.60;;;;;;4996705;28;20040;-80
2023/07/03 11:44:27;;;;;;;3.22;2.92;;;30.00;76.90;;;;;;4993173;28;20030;-79
2023/07/03 11:46:55;;;;;;;3.03;2.72;;;30.00;77.30;;;;;;4993516;28;20027;-80
2023/07/03 11:49:35;;;;;;;3.53;2.88;;;30.30;77.50;;;;;;4993479;28;20022;-81
2023/07/03 11:52:04;;;;;;;4.55;3.10;;;30.50;77.30;;;;;;4993521;28;20026;-79
2023/07/03 11:54:34;;;;;;;3.70;3.00;;;30.80;77.20;;;;;;5002537;28;20033;-79
2023/07/03 11:57:01;;;;;;;;;;;30.90;76.40;;;;;;5013148;28;20041;-80
2023/07/03 11:59:31;;;;;;;5.50;3.22;;;30.80;76.50;;;;;;4994875;28;19910;-80
2023/07/03 12:02:16;;;;;;;4.70;3.30;;;30.70;76.40;;;;;;5012375;28;20053;-81
2023/07/03 12:04:45;;;;;;;4.20;3.22;;;30.90;76.70;;;;;;5012079;28;20065;-80
2023/07/03 12:07:30;;;;;;;5.35;3.70;;;31.10;75.90;;;;;;5013403;28;20042;-80
2023/07/03 12:10:18;;;;;;;3.10;2.83;;;31.20;75.60;;;;;;4999658;28;20042;-80
2023/07/03 12:13:04;;;;;;;3.83;3.05;;;31.10;75.60;;;;;;5016258;28;20045;-80
2023/07/03 12:15:29;;;;;;;5.63;3.15;;;31.00;76.20;;;;;;5015771;28;20034;-81
2023/07/03 12:18:01;;;;;;;5.35;3.22;;;31.00;75.80;;;;;;5016300;28;20037;-80
2023/07/03 12:20:27;;;;;;;3.33;2.47;;;31.00;75.70;;;;;;5016061;28;20033;-81
2023/07/03 12:22:53;;;;;;;3.50;2.90;;;31.20;76.40;;;;;;5016666;28;20362;-81
2023/07/03 12:25:27;;;;;;;3.65;2.83;;;31.70;75.50;;;;;;5016458;28;20036;-81
2023/07/03 12:28:06;;;;;;;4.10;2.40;;;32.10;74.50;;;;;;5016239;28;20543;-81
2023/07/03 12:30:32;;;;;;;5.97;3.40;;;32.50;73.60;;;;;;4998392;28;20343;-81
2023/07/03 12:32:59;;;;;;;3.28;2.97;;;32.80;72.40;;;;;;5016335;28;20057;-81
2023/07/03 12:35:27;;;;;;;3.05;2.67;;;33.00;71.90;;;;;;5016366;28;20042;-81
2023/07/03 12:38:00;;;;;;;5.03;2.90;;;33.00;70.80;;;;;;5016421;28;20029;-81
2023/07/03 12:40:26;;;;;;;3.28;2.97;;;32.80;70.30;;;;;;5015489;28;20038;-81
2023/07/03 12:42:58;;;;;;;4.05;3.30;;;32.50;71.00;;;;;;5015374;28;20034;-81
2023/07/03 12:45:29;;;;;;;4.32;3.30;;;32.20;71.20;;;;;;5015792;28;20061;-81
2023/07/03 12:48:10;;;;;;;3.55;2.80;;;32.30;72.10;;;;;;5015924;28;20021;-81
2023/07/03 12:50:56;;;;;;;5.07;3.00;;;32.40;71.60;;;;;;5015635;28;20097;-81
2023/07/03 12:53:23;;;;;;;4.30;3.40;;;32.40;70.90;;;;;;4996102;28;20117;-80
2023/07/03 12:55:56;;;;;;;3.70;3.13;;;32.10;71.10;;;;;;5008807;28;20518;-80
2023/07/03 12:58:23;;;;;;;2.83;2.45;;;32.00;72.10;;;;;;5015512;28;20057;-80